Time;durP1;ratioP1;P1;durP2;ratioP2;P2;SDS_P1;SDS_P2;PMS_P1;PMS_P2;Temp;Humidity;BMP_temperature;BMP_pressure;BME280_temperature;BME280_humidity;BME280_pressure;Samples;Min_cycle;Max_cycle;Signal;HPM_P1;HPM_P2
2021/05/22 00:00:52;;;;;;;6.78;1.63;;;;;;;8.79;76.48;99602.69;4904653;28;20461;-55
2021/05/22 00:03:22;;;;;;;5.40;1.70;;;;;;;8.84;75.44;99600.88;4979881;28;20561;-51
2021/05/22 00:05:53;;;;;;;3.30;1.48;;;;;;;8.54;78.44;99612.56;4967912;28;20070;-53
2021/05/22 00:08:25;;;;;;;3.28;1.52;;;;;;;8.43;78.02;99607.50;4976743;28;20120;-53
2021/05/22 00:11:03;;;;;;;3.47;1.80;;;;;;;8.27;79.75;99612.03;4988030;28;20220;-51
2021/05/22 00:13:36;;;;;;;3.37;1.50;;;;;;;8.59;77.82;99599.50;4924607;28;20244;-54
2021/05/22 00:16:10;;;;;;;5.57;2.38;;;;;;;8.18;78.33;99617.31;4968811;28;20046;-55
2021/05/22 00:18:46;;;;;;;5.95;1.80;;;;;;;8.03;79.22;99600.16;4962876;28;20046;-52
2021/05/22 00:21:13;;;;;;;4.60;1.60;;;;;;;8.42;74.50;99602.28;4940056;28;20048;-54
2021/05/22 00:23:39;;;;;;;4.93;1.50;;;;;;;8.60;75.51;99609.03;4944906;28;20054;-54
2021/05/22 00:26:05;;;;;;;4.43;1.70;;;;;;;8.81;73.58;99606.13;4958721;28;20041;-53
2021/05/22 00:28:31;;;;;;;4.82;1.70;;;;;;;8.95;73.33;99602.47;4972104;28;20125;-53
2021/05/22 00:30:57;;;;;;;4.30;1.70;;;;;;;8.87;73.76;99594.75;4961592;28;20352;-51
2021/05/22 00:33:22;;;;;;;5.07;1.98;;;;;;;8.69;75.12;99596.75;4951295;28;20368;-55
2021/05/22 00:35:56;;;;;;;3.67;1.50;;;;;;;8.61;74.64;99595.13;4968956;28;20521;-52
2021/05/22 00:38:22;;;;;;;6.05;2.05;;;;;;;8.75;73.79;99589.72;4971439;28;20054;-52
2021/05/22 00:40:48;;;;;;;4.45;1.60;;;;;;;8.47;77.64;99590.97;4964016;28;20042;-52
2021/05/22 00:43:14;;;;;;;7.05;1.85;;;;;;;8.17;78.66;99582.63;4966385;28;20039;-51
2021/05/22 00:45:39;;;;;;;5.57;1.67;;;;;;;7.95;79.50;99583.78;4948766;28;20138;-52
2021/05/22 00:48:05;;;;;;;5.03;1.63;;;;;;;8.22;76.15;99579.97;4947016;28;20050;-51
2021/05/22 00:50:35;;;;;;;6.03;1.98;;;;;;;8.55;75.50;99587.41;4967442;28;20727;-52
2021/05/22 00:53:02;;;;;;;6.40;1.63;;;;;;;8.59;75.52;99589.94;4944169;28;20404;-52
2021/05/22 00:55:29;;;;;;;5.35;1.60;;;;;;;8.52;76.34;99588.31;4974322;28;20125;-51
2021/05/22 00:57:56;;;;;;;5.60;1.83;;;;;;;8.64;74.75;99584.66;4968352;28;20403;-53
2021/05/22 01:00:44;;;;;;;4.07;1.50;;;;;;;8.50;75.42;99585.72;4947758;28;20161;-53
2021/05/22 01:03:18;;;;;;;4.80;1.63;;;;;;;8.42;76.66;99578.84;4959696;28;20065;-51
2021/05/22 01:05:46;;;;;;;3.58;1.40;;;;;;;8.58;75.44;99577.78;4946619;28;20429;-53
2021/05/22 01:08:20;;;;;;;5.82;1.42;;;;;;;8.60;73.16;99575.16;4964265;28;20570;-53
2021/05/22 01:10:55;;;;;;;6.47;1.55;;;;;;;8.71;72.71;99585.44;4967501;28;20466;-52
2021/05/22 01:13:21;;;;;;;4.43;1.15;;;;;;;8.77;73.18;99578.38;4960604;28;20050;-56
2021/05/22 01:15:53;;;;;;;3.28;1.50;;;;;;;8.70;73.73;99571.56;4965813;28;20046;-51
2021/05/22 01:18:23;;;;;;;4.57;1.42;;;;;;;8.64;74.82;99572.50;4949232;28;20058;-53
2021/05/22 01:20:55;;;;;;;3.40;1.30;;;;;;;8.72;73.37;99569.78;4969026;28;20046;-53
2021/05/22 01:23:40;;;;;;;3.28;1.27;;;;;;;8.86;72.48;99564.34;4970008;28;20100;-54
2021/05/22 01:26:10;;;;;;;5.03;1.30;;;;;;;8.95;71.65;99568.59;4960877;28;20093;-52
2021/05/22 01:28:37;;;;;;;4.15;1.35;;;;;;;8.89;73.17;99576.47;4945231;28;20093;-51
2021/05/22 01:31:07;;;;;;;2.80;1.40;;;;;;;8.85;73.02;99571.31;4940034;28;20058;-52
2021/05/22 01:33:34;;;;;;;4.68;1.20;;;;;;;8.77;72.42;99570.56;4939665;28;20212;-53
2021/05/22 01:36:05;;;;;;;6.32;1.33;;;;;;;8.84;70.90;99576.56;4943624;28;20397;-55
2021/05/22 01:38:31;;;;;;;4.47;1.30;;;;;;;8.92;71.82;99582.50;4941417;28;20053;-52
2021/05/22 01:40:56;;;;;;;3.30;1.27;;;;;;;8.87;72.29;99576.50;4960391;28;20561;-51
2021/05/22 01:43:22;;;;;;;4.63;1.30;;;;;;;8.82;71.27;99573.97;4925581;28;20049;-54
2021/05/22 01:45:51;;;;;;;2.85;1.25;;;;;;;8.88;71.02;99570.41;4944933;28;20034;-51
2021/05/22 01:48:20;;;;;;;3.08;1.27;;;;;;;8.98;71.03;99576.34;4955282;28;20100;-55
2021/05/22 01:50:56;;;;;;;2.97;1.60;;;;;;;8.98;72.28;99571.97;4960510;28;20070;-53
2021/05/22 01:53:22;;;;;;;3.03;1.00;;;;;;;8.88;70.88;99572.19;4956815;28;20157;-51
2021/05/22 01:55:49;;;;;;;3.95;1.02;;;;;;;8.97;72.17;99579.81;4959043;28;20026;-51
2021/05/22 01:58:15;;;;;;;3.30;1.10;;;;;;;8.92;71.91;99572.09;4922695;28;20378;-53
2021/05/22 02:00:44;;;;;;;7.20;1.63;;;;;;;8.82;71.85;99568.78;4954560;28;20057;-51
2021/05/22 02:03:18;;;;;;;3.67;1.02;;;;;;;8.90;71.12;99567.78;4950262;28;20046;-50
2021/05/22 02:05:47;;;;;;;2.75;1.08;;;;;;;8.82;70.97;99567.88;4921896;28;20046;-52
2021/05/22 02:08:17;;;;;;;4.63;1.17;;;;;;;8.85;71.01;99566.09;4943311;28;20555;-52
2021/05/22 02:10:46;;;;;;;4.35;1.10;;;;;;;8.75;71.75;99568.88;4944203;28;20313;-52
2021/05/22 02:13:12;;;;;;;3.30;1.33;;;;;;;8.66;72.21;99575.09;4936477;28;20047;-51
2021/05/22 02:15:41;;;;;;;3.58;0.98;;;;;;;8.64;71.96;99561.19;4950555;28;20376;-51
2021/05/22 02:18:11;;;;;;;4.03;1.30;;;;;;;8.58;71.77;99561.31;4936292;28;20354;-53
2021/05/22 02:20:37;;;;;;;4.40;1.55;;;;;;;8.71;71.10;99560.25;4948731;28;20126;-51
2021/05/22 02:23:05;;;;;;;5.90;1.48;;;;;;;8.63;71.85;99557.75;4943555;28;20049;-50
2021/05/22 02:25:31;;;;;;;6.43;1.27;;;;;;;8.63;71.90;99554.28;4944487;28;20491;-51
2021/05/22 02:28:01;;;;;;;4.07;1.00;;;;;;;8.59;71.87;99557.81;4960022;28;20598;-51
2021/05/22 02:30:27;;;;;;;3.63;1.33;;;;;;;8.61;70.37;99556.94;4959872;28;20073;-52
2021/05/22 02:32:54;;;;;;;4.38;1.25;;;;;;;8.56;70.49;99553.50;4955780;28;20050;-55
2021/05/22 02:35:21;;;;;;;3.75;1.10;;;;;;;8.62;71.22;99552.56;4945144;28;20031;-51
2021/05/22 02:37:52;;;;;;;3.75;1.05;;;;;;;8.65;70.59;99557.72;4950656;28;20037;-50
2021/05/22 02:40:21;;;;;;;3.50;1.10;;;;;;;8.65;71.55;99555.13;4952728;28;20035;-50
2021/05/22 02:42:54;;;;;;;4.50;1.30;;;;;;;8.60;71.78;99547.38;4958190;28;20046;-50
2021/05/22 02:45:22;;;;;;;4.90;1.30;;;;;;;8.58;72.22;99556.09;4963370;28;20462;-51
2021/05/22 02:47:51;;;;;;;3.50;1.00;;;;;;;8.58;71.78;99551.72;4964561;28;20509;-50
2021/05/22 02:50:19;;;;;;;2.70;1.10;;;;;;;8.50;71.70;99567.50;4950115;28;20471;-52
2021/05/22 02:52:45;;;;;;;3.20;1.30;;;;;;;8.48;71.66;99561.44;4963579;28;20038;-52
2021/05/22 02:55:11;;;;;;;3.95;1.30;;;;;;;8.48;71.32;99558.81;4948309;28;20124;-50
2021/05/22 02:57:41;;;;;;;4.20;1.58;;;;;;;8.49;71.19;99564.91;4962713;28;20199;-52
2021/05/22 03:00:08;;;;;;;2.50;1.02;;;;;;;8.52;72.11;99555.28;4962564;28;20046;-51
2021/05/22 03:02:35;;;;;;;4.68;1.23;;;;;;;8.46;71.90;99546.69;4946003;28;20069;-51
2021/05/22 03:05:04;;;;;;;3.83;1.08;;;;;;;8.54;71.90;99562.22;4962524;28;20042;-50
2021/05/22 03:07:29;;;;;;;4.68;1.25;;;;;;;8.53;71.19;99558.78;4966091;28;20339;-50
2021/05/22 03:09:55;;;;;;;2.22;1.15;;;;;;;8.53;72.56;99558.78;4962628;28;20045;-50
2021/05/22 03:12:28;;;;;;;4.60;1.23;;;;;;;8.54;72.48;99554.41;4947341;28;20499;-52
2021/05/22 03:14:53;;;;;;;3.42;1.10;;;;;;;8.58;70.63;99554.34;4959988;28;20216;-50
2021/05/22 03:17:19;;;;;;;3.08;1.20;;;;;;;8.50;71.37;99553.59;4965051;28;20022;-53
2021/05/22 03:19:45;;;;;;;4.03;0.95;;;;;;;8.61;72.31;99540.41;4965074;28;20039;-51
2021/05/22 03:22:12;;;;;;;2.80;1.27;;;;;;;8.57;70.58;99543.94;4943519;28;20229;-52
2021/05/22 03:24:37;;;;;;;5.15;1.55;;;;;;;8.45;71.86;99540.63;4946977;28;20340;-52
2021/05/22 03:27:04;;;;;;;4.07;1.30;;;;;;;8.47;71.22;99546.69;4922819;28;20166;-52
2021/05/22 03:29:31;;;;;;;6.20;1.42;;;;;;;8.48;72.73;99543.19;4943441;28;20764;-49
2021/05/22 03:31:56;;;;;;;3.13;1.08;;;;;;;8.50;72.63;99543.16;4947597;28;20056;-51
2021/05/22 03:34:22;;;;;;;3.08;1.30;;;;;;;8.47;72.31;99544.09;4944489;28;20123;-50
2021/05/22 03:36:48;;;;;;;4.32;1.33;;;;;;;8.44;71.18;99535.41;4948285;28;20043;-50
2021/05/22 03:39:16;;;;;;;4.15;1.30;;;;;;;8.46;71.90;99534.56;4954490;28;20488;-51
2021/05/22 03:41:41;;;;;;;2.70;1.13;;;;;;;8.43;72.07;99541.50;4964270;28;20065;-50
2021/05/22 03:44:07;;;;;;;2.92;1.00;;;;;;;8.45;72.48;99545.84;4948942;28;20065;-49
2021/05/22 03:46:33;;;;;;;5.40;1.63;;;;;;;8.49;72.39;99537.09;4968477;28;20407;-51
2021/05/22 03:48:59;;;;;;;3.47;1.10;;;;;;;8.45;72.53;99535.44;4958399;28;20042;-50
2021/05/22 03:51:25;;;;;;;5.15;1.30;;;;;;;8.49;72.38;99531.06;4953190;28;20049;-52
2021/05/22 03:53:51;;;;;;;2.58;1.17;;;;;;;8.64;71.98;99536.03;4947381;28;20292;-50
2021/05/22 03:56:17;;;;;;;6.38;2.30;;;;;;;8.52;71.76;99526.63;4949544;28;20458;-51
2021/05/22 03:58:43;;;;;;;3.58;1.20;;;;;;;8.62;72.68;99536.94;4968756;28;20036;-52
2021/05/22 04:01:08;;;;;;;4.65;1.50;;;;;;;8.57;71.67;99534.41;4960408;28;20092;-51
2021/05/22 04:03:34;;;;;;;3.58;1.35;;;;;;;8.62;71.70;99542.16;4951143;28;20034;-50
2021/05/22 04:06:00;;;;;;;2.17;1.10;;;;;;;8.56;71.86;99539.66;4959648;28;20494;-50
2021/05/22 04:08:25;;;;;;;5.05;1.75;;;;;;;8.60;70.53;99542.16;4973106;28;20062;-51
2021/05/22 04:10:53;;;;;;;3.83;1.50;;;;;;;8.72;71.64;99538.50;4963066;28;20038;-52
2021/05/22 04:13:19;;;;;;;3.13;1.30;;;;;;;8.70;70.87;99537.69;4959221;28;20038;-51
2021/05/22 04:15:45;;;;;;;3.88;1.10;;;;;;;8.72;72.08;99541.09;4964878;28;20061;-50
2021/05/22 04:18:13;;;;;;;3.00;1.20;;;;;;;8.67;72.65;99540.34;4945668;28;20051;-50
2021/05/22 04:20:39;;;;;;;4.05;1.65;;;;;;;8.69;71.95;99538.56;4957115;28;20073;-54
2021/05/22 04:23:05;;;;;;;5.43;1.30;;;;;;;8.65;72.59;99535.16;4945288;28;20074;-50
2021/05/22 04:25:31;;;;;;;5.90;1.58;;;;;;;8.67;71.64;99535.97;4945751;28;20101;-49
2021/05/22 04:27:57;;;;;;;7.30;1.52;;;;;;;8.67;72.76;99537.72;4946827;28;20027;-50
2021/05/22 04:30:23;;;;;;;4.32;1.55;;;;;;;8.67;72.21;99535.97;4944179;28;20271;-50
2021/05/22 04:32:49;;;;;;;3.90;1.40;;;;;;;8.82;72.40;99540.09;4947774;28;20331;-50
2021/05/22 04:35:16;;;;;;;5.45;1.50;;;;;;;8.70;71.30;99545.50;4950626;28;20043;-51
2021/05/22 04:37:42;;;;;;;4.93;1.50;;;;;;;8.69;71.78;99546.38;4957005;28;20557;-52
2021/05/22 04:40:09;;;;;;;3.42;1.33;;;;;;;8.76;72.40;99544.53;4919017;28;20078;-51
2021/05/22 04:42:35;;;;;;;3.83;1.60;;;;;;;8.74;72.87;99541.97;4964188;28;20092;-51
2021/05/22 04:45:02;;;;;;;6.35;1.90;;;;;;;8.62;72.19;99537.78;4950786;28;20310;-51
2021/05/22 04:47:28;;;;;;;5.40;1.98;;;;;;;8.83;71.11;99536.63;4951365;28;20062;-51
2021/05/22 04:49:58;;;;;;;7.93;1.95;;;;;;;8.99;71.54;99541.59;4962540;28;20422;-51
2021/05/22 04:52:27;;;;;;;4.63;1.80;;;;;;;9.05;70.22;99557.09;4930323;28;20714;-50
2021/05/22 04:54:53;;;;;;;5.65;1.92;;;;;;;9.03;69.87;99538.03;4952865;28;20407;-53
2021/05/22 04:57:19;;;;;;;9.80;2.03;;;;;;;9.16;68.84;99544.75;4962893;28;20050;-51
2021/05/22 04:59:45;;;;;;;4.70;1.80;;;;;;;9.24;68.40;99542.03;4959761;28;20046;-51
2021/05/22 05:02:11;;;;;;;11.07;2.90;;;;;;;9.25;69.47;99542.88;4962797;28;20319;-49
2021/05/22 05:04:37;;;;;;;5.90;1.92;;;;;;;9.32;68.21;99534.09;4930257;28;21495;-51
2021/05/22 05:07:04;;;;;;;6.85;1.60;;;;;;;9.33;68.06;99549.69;4971027;28;20125;-53
2021/05/22 05:09:37;;;;;;;2.53;1.10;;;;;;;9.40;67.73;99545.25;4951342;28;20057;-50
2021/05/22 05:12:06;;;;;;;3.33;1.40;;;;;;;9.42;68.15;99542.59;4964070;28;20475;-49
2021/05/22 05:14:33;;;;;;;11.02;1.63;;;;;;;9.47;67.85;99545.97;4962342;28;20038;-50
2021/05/22 05:17:00;;;;;;;4.55;1.20;;;;;;;9.54;67.27;99539.78;4970671;28;20093;-51
2021/05/22 05:19:28;;;;;;;3.92;1.20;;;;;;;9.50;67.54;99548.53;4964867;28;20556;-50
2021/05/22 05:21:55;;;;;;;6.10;1.15;;;;;;;9.52;67.45;99547.59;4948513;28;20038;-52
2021/05/22 05:24:21;;;;;;;4.75;1.38;;;;;;;9.58;67.77;99546.66;4948602;28;20374;-49
2021/05/22 05:26:53;;;;;;;6.60;1.80;;;;;;;9.58;67.46;99548.38;4947744;28;20503;-49
2021/05/22 05:29:24;;;;;;;6.97;1.85;;;;;;;9.58;67.31;99559.69;4951253;28;20049;-51
2021/05/22 05:31:50;;;;;;;6.25;1.30;;;;;;;9.63;66.43;99557.00;4956275;28;20027;-51
2021/05/22 05:34:19;;;;;;;4.57;1.42;;;;;;;9.62;67.27;99553.53;4940580;28;20047;-51
2021/05/22 05:36:46;;;;;;;4.97;1.13;;;;;;;9.74;66.83;99548.97;4940804;28;20046;-51
2021/05/22 05:39:13;;;;;;;6.28;1.55;;;;;;;9.77;67.42;99552.34;4951330;28;20100;-49
2021/05/22 05:41:40;;;;;;;3.42;1.10;;;;;;;9.86;66.26;99552.19;4945855;28;20069;-50
2021/05/22 05:44:07;;;;;;;3.50;1.13;;;;;;;9.89;66.65;99549.50;4953251;28;20050;-53
2021/05/22 05:46:35;;;;;;;3.95;1.10;;;;;;;9.95;66.85;99550.28;4954037;28;20389;-50
2021/05/22 05:49:02;;;;;;;4.45;1.30;;;;;;;9.91;66.93;99551.25;4949136;28;20544;-49
2021/05/22 05:51:30;;;;;;;4.50;1.20;;;;;;;9.95;66.00;99545.06;4945860;28;20467;-49
2021/05/22 05:53:56;;;;;;;4.57;1.60;;;;;;;10.03;66.61;99558.81;4944178;28;20039;-50
2021/05/22 05:56:22;;;;;;;3.85;1.50;;;;;;;10.00;65.63;99545.84;4946050;28;20050;-48
2021/05/22 05:58:48;;;;;;;4.78;0.90;;;;;;;10.13;66.08;99560.34;4950707;28;20096;-49
2021/05/22 06:01:14;;;;;;;4.20;1.30;;;;;;;10.08;66.50;99549.16;4965188;28;20218;-49
2021/05/22 06:03:41;;;;;;;2.20;1.00;;;;;;;10.16;65.28;99560.31;4948146;28;20543;-50
2021/05/22 06:06:06;;;;;;;2.65;1.00;;;;;;;10.16;65.71;99562.91;4946243;28;20104;-52
2021/05/22 06:08:32;;;;;;;2.85;0.82;;;;;;;10.12;65.73;99552.53;4964667;28;20399;-50
2021/05/22 06:11:00;;;;;;;6.53;1.25;;;;;;;10.13;65.94;99557.72;4942991;28;20031;-49
2021/05/22 06:13:31;;;;;;;2.03;1.23;;;;;;;10.25;65.49;99559.25;4963820;28;21461;-51
2021/05/22 06:18:32;;;;;;;3.58;0.60;;;;;;;10.21;65.79;99558.44;4948060;28;20422;-50
2021/05/22 06:20:59;;;;;;;2.90;0.80;;;;;;;10.22;65.66;99556.72;4948520;28;20042;-48
2021/05/22 06:23:25;;;;;;;1.42;0.73;;;;;;;10.20;65.60;99566.31;4960074;28;20837;-49
2021/05/22 06:25:53;;;;;;;4.40;1.25;;;;;;;10.25;66.31;99555.78;4948980;28;20041;-49
2021/05/22 06:28:19;;;;;;;2.05;0.70;;;;;;;10.25;65.22;99555.78;4963037;28;20039;-50
2021/05/22 06:30:46;;;;;;;2.97;0.90;;;;;;;10.22;66.33;99561.94;4943905;28;20212;-50
2021/05/22 06:33:13;;;;;;;2.33;1.00;;;;;;;10.29;65.17;99565.28;4953490;28;20039;-51
2021/05/22 06:35:38;;;;;;;3.25;0.70;;;;;;;10.22;65.98;99556.72;4938615;28;20133;-50
2021/05/22 06:38:04;;;;;;;2.08;0.70;;;;;;;10.27;65.46;99556.59;4964894;28;20118;-52
2021/05/22 06:40:30;;;;;;;4.15;1.00;;;;;;;10.27;65.66;99562.66;4947347;28;20459;-51
2021/05/22 06:42:56;;;;;;;1.33;0.80;;;;;;;10.22;65.61;99561.94;4954303;28;20094;-53
2021/05/22 06:45:25;;;;;;;2.60;0.70;;;;;;;10.29;65.61;99555.69;4942801;28;20050;-49
2021/05/22 06:47:51;;;;;;;2.22;0.85;;;;;;;10.35;65.67;99566.00;4948263;28;20042;-50
2021/05/22 06:50:18;;;;;;;7.32;0.80;;;;;;;10.35;65.89;99563.41;4970130;28;20214;-49
2021/05/22 06:52:44;;;;;;;3.13;1.13;;;;;;;10.26;66.60;99560.09;4966098;28;20518;-49
2021/05/22 06:55:10;;;;;;;3.00;0.70;;;;;;;10.41;65.39;99565.03;4961061;28;20043;-51
2021/05/22 06:57:36;;;;;;;1.40;0.60;;;;;;;10.45;64.37;99557.97;4962911;28;20038;-50
2021/05/22 07:00:05;;;;;;;1.58;0.88;;;;;;;10.38;65.03;99565.97;4964281;28;20035;-50
2021/05/22 07:02:30;;;;;;;3.53;0.82;;;;;;;10.28;65.25;99556.56;4956597;28;20051;-48
2021/05/22 07:04:56;;;;;;;4.93;1.02;;;;;;;10.33;65.13;99561.72;4946207;28;20448;-49
2021/05/22 07:07:22;;;;;;;1.90;0.65;;;;;;;10.35;64.57;99554.72;4962100;28;20046;-50
2021/05/22 07:09:48;;;;;;;2.40;1.08;;;;;;;10.39;65.66;99569.44;4962047;28;20045;-49
2021/05/22 07:12:15;;;;;;;5.10;0.95;;;;;;;10.26;67.68;99586.22;4965586;28;20050;-51
2021/05/22 07:14:41;;;;;;;1.42;0.80;;;;;;;10.12;69.87;99578.66;4953610;28;20038;-50
2021/05/22 07:17:07;;;;;;;2.58;1.00;;;;;;;9.94;71.35;99575.53;4967553;28;20070;-50
2021/05/22 07:19:34;;;;;;;2.80;1.35;;;;;;;9.72;71.53;99585.53;4950856;28;20311;-50
2021/05/22 07:22:00;;;;;;;3.90;0.98;;;;;;;9.72;71.94;99595.97;4966008;28;20503;-54
2021/05/22 07:24:27;;;;;;;3.00;1.13;;;;;;;9.53;73.26;99600.66;4971905;28;20093;-51
2021/05/22 07:26:55;;;;;;;5.85;1.92;;;;;;;9.42;76.37;99606.06;4964104;28;20304;-49
2021/05/22 07:29:22;;;;;;;3.97;1.63;;;;;;;9.42;75.41;99605.19;4948574;28;20520;-50
2021/05/22 07:31:47;;;;;;;1.98;0.90;;;;;;;9.44;74.00;99598.19;4965918;28;20207;-49
2021/05/22 07:34:13;;;;;;;6.22;1.48;;;;;;;9.18;79.53;99602.97;4946524;28;20048;-50
2021/05/22 07:36:40;;;;;;;2.50;1.10;;;;;;;9.38;75.27;99609.59;4964194;28;20046;-52
2021/05/22 07:39:10;;;;;;;2.97;1.02;;;;;;;9.41;75.27;99606.09;4951969;28;20476;-51
2021/05/22 07:41:38;;;;;;;2.97;1.02;;;;;;;9.37;75.47;99605.25;4944110;28;20043;-51
2021/05/22 07:44:05;;;;;;;5.20;1.48;;;;;;;9.29;77.89;99613.22;4947601;28;20041;-49
2021/05/22 07:46:31;;;;;;;3.97;1.13;;;;;;;9.27;74.98;99617.59;4946732;28;20566;-49
2021/05/22 07:48:57;;;;;;;4.47;1.13;;;;;;;9.51;75.47;99618.94;4950217;28;20745;-51
2021/05/22 07:51:22;;;;;;;2.90;0.95;;;;;;;9.48;75.91;99612.91;4945645;28;20492;-49
2021/05/22 07:53:48;;;;;;;3.65;1.15;;;;;;;9.46;75.95;99623.38;4942560;28;20051;-50
2021/05/22 07:56:14;;;;;;;5.07;1.55;;;;;;;9.47;75.31;99622.50;4942220;28;20032;-49
2021/05/22 07:58:40;;;;;;;4.05;1.20;;;;;;;9.44;75.88;99626.88;4962121;28;20042;-54
2021/05/22 08:01:05;;;;;;;7.07;1.42;;;;;;;9.57;76.56;99628.41;4954692;28;20043;-52
2021/05/22 08:03:31;;;;;;;2.97;1.45;;;;;;;9.52;76.21;99638.91;4946530;28;20050;-49
2021/05/22 08:05:58;;;;;;;4.15;1.38;;;;;;;9.44;79.26;99643.44;4968874;28;20043;-50
2021/05/22 08:08:23;;;;;;;5.25;1.65;;;;;;;9.35;80.48;99648.78;4952178;28;20134;-49
2021/05/22 08:10:49;;;;;;;4.07;1.33;;;;;;;9.47;77.76;99647.69;4954047;28;20042;-51
2021/05/22 08:13:15;;;;;;;4.32;1.20;;;;;;;9.36;77.70;99646.16;4941161;28;20496;-50
2021/05/22 08:15:41;;;;;;;2.45;1.05;;;;;;;9.29;77.99;99643.66;4954981;28;20084;-50
2021/05/22 08:18:07;;;;;;;3.13;1.10;;;;;;;9.25;80.02;99647.19;4959641;28;20246;-50
2021/05/22 08:20:34;;;;;;;4.68;1.35;;;;;;;9.29;79.23;99646.25;4955088;28;20046;-49
2021/05/22 08:25:53;;;;;;;5.18;1.23;;;;;;;9.30;77.94;99648.84;5012310;28;20052;-85
2021/05/22 08:28:21;;;;;;;2.78;1.17;;;;;;;9.37;77.83;99644.38;5001384;28;20033;-86
2021/05/22 08:30:49;;;;;;;3.35;1.00;;;;;;;9.37;77.62;99634.84;5029560;28;20055;-83
2021/05/22 08:33:15;;;;;;;2.45;1.00;;;;;;;9.33;75.10;99656.63;5040477;28;20069;-86
2021/05/22 08:35:42;;;;;;;4.47;1.20;;;;;;;9.38;75.84;99653.94;5055453;28;20041;-84
2021/05/22 08:38:07;;;;;;;3.38;1.13;;;;;;;9.41;76.89;99655.66;5037139;28;20059;-85
2021/05/22 08:40:33;;;;;;;3.65;1.05;;;;;;;9.49;75.93;99644.19;5055262;28;20029;-83
2021/05/22 08:42:59;;;;;;;3.28;1.02;;;;;;;9.42;74.64;99650.41;5015839;28;20039;-86
2021/05/22 08:45:25;;;;;;;2.03;0.80;;;;;;;9.54;74.68;99644.97;5008081;28;20048;-85
2021/05/22 08:47:55;;;;;;;4.35;1.30;;;;;;;9.44;75.94;99640.81;5025729;28;20033;-86
2021/05/22 08:50:22;;;;;;;2.60;0.98;;;;;;;9.51;74.32;99684.19;5018350;28;20047;-85
2021/05/22 08:52:49;;;;;;;2.95;1.10;;;;;;;9.71;73.09;99642.06;5053729;28;20052;-83
2021/05/22 08:55:16;;;;;;;4.22;1.40;;;;;;;9.71;73.87;99643.84;5037860;28;20068;-84
2021/05/22 08:57:42;;;;;;;3.97;0.90;;;;;;;9.72;72.19;99679.50;5053070;28;20041;-83
2021/05/22 09:00:12;;;;;;;5.28;1.10;;;;;;;9.75;74.59;99655.06;5051999;28;20043;-84
2021/05/22 09:02:39;;;;;;;2.45;1.15;;;;;;;9.71;73.61;99662.09;5019947;28;20097;-84
2021/05/22 09:05:31;;;;;;;4.70;1.23;;;;;;;9.80;72.95;99655.84;5053984;28;20044;-85
2021/05/22 09:07:59;;;;;;;3.45;1.15;;;;;;;9.80;72.88;99676.72;5036176;28;20170;-84
2021/05/22 09:10:35;;;;;;;1.70;0.82;;;;;;;9.73;72.61;99665.53;5041296;28;20186;-84
2021/05/22 09:13:03;;;;;;;3.47;1.00;;;;;;;9.87;71.26;99674.00;5034736;28;20041;-84
2021/05/22 09:15:32;;;;;;;2.72;1.00;;;;;;;9.81;73.09;99704.56;5027919;28;20570;-86
2021/05/22 09:18:02;;;;;;;3.17;1.55;;;;;;;9.81;71.88;99671.47;5016670;28;20201;-85
2021/05/22 09:20:33;;;;;;;2.47;0.70;;;;;;;9.95;70.92;99659.94;5005085;28;20107;-85
2021/05/22 09:23:02;;;;;;;3.13;1.10;;;;;;;9.94;73.06;99659.09;5070786;28;20070;-85
2021/05/22 09:25:30;;;;;;;1.02;0.70;;;;;;;10.03;71.05;99664.13;5070121;28;20054;-85
2021/05/22 09:27:57;;;;;;;1.67;0.70;;;;;;;10.06;71.79;99644.94;5022523;28;20025;-85
2021/05/22 09:30:24;;;;;;;2.08;1.10;;;;;;;10.01;70.54;99670.25;5010637;28;20408;-86
2021/05/22 09:32:50;;;;;;;2.58;0.95;;;;;;;10.10;68.25;99664.03;5020050;28;20516;-86
2021/05/22 09:35:17;;;;;;;1.98;0.85;;;;;;;10.18;68.33;99662.13;5020587;28;20094;-86
2021/05/22 09:37:47;;;;;;;1.70;0.82;;;;;;;10.22;67.91;99669.00;5054402;28;20507;-85
2021/05/22 09:40:24;;;;;;;2.47;1.02;;;;;;;10.22;68.25;99676.84;5023954;28;20045;-84
2021/05/22 09:42:52;;;;;;;3.90;1.08;;;;;;;10.25;66.23;99675.94;5019362;28;20106;-86
2021/05/22 09:45:41;;;;;;;2.92;1.10;;;;;;;10.20;69.43;99676.88;4994729;28;20077;-83
2021/05/22 09:48:17;;;;;;;1.63;0.75;;;;;;;10.29;68.46;99680.22;5009205;28;20041;-84
2021/05/22 09:50:45;;;;;;;5.60;1.20;;;;;;;10.34;68.80;99678.34;5019437;28;20076;-84
2021/05/22 09:53:26;;;;;;;1.42;0.70;;;;;;;10.28;67.70;99675.88;5018359;28;20033;-84
2021/05/22 09:56:14;;;;;;;3.20;1.10;;;;;;;10.20;68.77;99682.09;5022351;28;20765;-87
2021/05/22 09:58:49;;;;;;;1.73;0.90;;;;;;;10.28;69.33;99686.31;5036948;28;20051;-86
2021/05/22 10:01:16;;;;;;;1.00;0.65;;;;;;;10.27;69.61;99695.03;5030431;28;20049;-84
2021/05/22 10:03:42;;;;;;;1.58;0.80;;;;;;;10.21;70.15;99683.81;5030742;28;20037;-85
2021/05/22 10:06:09;;;;;;;1.80;0.80;;;;;;;10.25;70.61;99699.44;5047127;28;20594;-85
2021/05/22 10:08:35;;;;;;;1.02;0.80;;;;;;;10.09;70.50;99720.59;5031755;28;20087;-85
2021/05/22 10:11:02;;;;;;;4.22;1.23;;;;;;;10.14;70.74;99733.59;5016807;28;20037;-85
2021/05/22 10:13:28;;;;;;;5.13;1.88;;;;;;;10.05;72.65;99698.03;5048904;28;20541;-84
2021/05/22 10:16:00;;;;;;;3.53;0.77;;;;;;;10.14;70.93;99707.47;5010149;28;20041;-85
2021/05/22 10:18:31;;;;;;;2.50;0.80;;;;;;;10.17;71.32;99741.38;4987696;28;20692;-85
2021/05/22 10:21:03;;;;;;;3.28;1.02;;;;;;;10.11;70.46;99742.34;4999012;28;21038;-85
2021/05/22 10:23:29;;;;;;;2.58;0.88;;;;;;;10.13;71.42;99751.00;5041871;28;20060;-83
2021/05/22 10:25:57;;;;;;;3.58;0.88;;;;;;;10.27;68.69;99719.41;5018398;28;20064;-84
2021/05/22 10:28:24;;;;;;;3.10;0.85;;;;;;;10.30;69.01;99708.03;5032737;28;20740;-87
2021/05/22 10:30:50;;;;;;;2.30;0.85;;;;;;;10.42;67.81;99702.59;5036524;28;20037;-85
2021/05/22 10:33:17;;;;;;;2.20;0.80;;;;;;;10.45;67.64;99749.56;5033044;28;20064;-85
2021/05/22 10:35:53;;;;;;;2.05;0.95;;;;;;;10.50;67.47;99713.78;5015243;28;20075;-83
2021/05/22 10:38:36;;;;;;;3.38;1.05;;;;;;;10.49;69.44;99721.66;5031724;28;20143;-87
2021/05/22 10:41:11;;;;;;;5.22;0.82;;;;;;;10.63;67.45;99718.75;5006770;28;20095;-84
2021/05/22 10:44:00;;;;;;;3.90;0.80;;;;;;;10.77;66.00;99718.47;5040362;28;20257;-86
2021/05/22 10:46:26;;;;;;;3.28;1.02;;;;;;;10.65;68.20;99741.38;5052479;28;20533;-85
2021/05/22 10:49:02;;;;;;;2.08;0.93;;;;;;;10.84;65.28;99725.28;5050822;28;20470;-85
2021/05/22 10:51:33;;;;;;;5.00;1.50;;;;;;;10.72;67.43;99755.19;5014639;28;20429;-86
2021/05/22 10:54:03;;;;;;;3.90;0.95;;;;;;;10.78;66.76;99726.28;5018011;28;20053;-87
2021/05/22 10:56:30;;;;;;;3.85;1.20;;;;;;;10.87;66.45;99720.88;5037293;28;20045;-86
2021/05/22 10:59:07;;;;;;;2.47;0.93;;;;;;;10.94;65.68;99731.19;5025882;28;20100;-88
2021/05/22 11:01:40;;;;;;;4.18;1.08;;;;;;;10.83;67.84;99727.06;5049927;28;20511;-84
2021/05/22 11:04:13;;;;;;;1.35;0.73;;;;;;;11.02;64.83;99738.00;5033484;28;20058;-87
2021/05/22 11:06:39;;;;;;;5.55;1.17;;;;;;;11.12;64.81;99732.53;5004479;28;20660;-86
2021/05/22 11:09:28;;;;;;;5.15;0.98;;;;;;;11.14;64.28;99739.47;5021619;28;20049;-87
2021/05/22 11:11:58;;;;;;;2.60;0.75;;;;;;;11.18;65.84;99758.59;5040412;28;20503;-87
2021/05/22 11:14:37;;;;;;;3.20;1.05;;;;;;;11.24;63.75;99748.84;5036203;28;20075;-87
2021/05/22 11:17:21;;;;;;;4.70;1.10;;;;;;;11.16;65.24;99752.50;5026327;28;20036;-86
2021/05/22 11:20:04;;;;;;;3.00;0.85;;;;;;;11.30;66.02;99760.06;5021346;28;20056;-86
2021/05/22 11:22:31;;;;;;;7.43;1.73;;;;;;;11.29;65.76;99758.34;5030952;28;20681;-87
2021/05/22 11:25:01;;;;;;;6.03;1.08;;;;;;;11.23;66.13;99765.44;5031965;28;20060;-87
2021/05/22 11:30:41;;;;;;;3.25;0.93;;;;;;;11.41;64.44;99769.41;5030500;28;20048;-88
2021/05/22 11:33:26;;;;;;;5.20;1.27;;;;;;;11.42;64.25;99767.63;5019714;28;20095;-86
2021/05/22 11:35:53;;;;;;;8.82;1.42;;;;;;;11.43;65.44;99765.91;5040351;28;20374;-85
2021/05/22 11:38:19;;;;;;;6.15;1.05;;;;;;;11.51;65.68;99772.66;5037768;28;20028;-85
2021/05/22 11:40:45;;;;;;;6.57;1.20;;;;;;;11.46;64.96;99781.53;5022275;28;20048;-87
2021/05/22 11:43:14;;;;;;;3.47;0.70;;;;;;;11.53;63.00;99783.97;5020067;28;20048;-86
2021/05/22 11:45:46;;;;;;;4.97;1.52;;;;;;;11.47;63.86;99778.03;5021063;28;20094;-86
2021/05/22 11:48:36;;;;;;;4.95;1.40;;;;;;;11.52;63.54;99765.66;5022247;28;20052;-85
2021/05/22 11:51:02;;;;;;;4.82;1.20;;;;;;;11.53;64.07;99777.88;5018037;28;20621;-86
2021/05/22 11:53:29;;;;;;;3.50;1.23;;;;;;;11.46;65.62;99771.06;5042051;28;20051;-84